sensor_id;sensor_type;location;lat;lon;timestamp;pressure;altitude;pressure_sealevel;temperature;humidity
70506;BME280;58032;49.820;6.274;2023-04-27T00:00:48;97783.75;;;3.38;100.00
70506;BME280;58032;49.820;6.274;2023-04-27T00:03:15;97775.41;;;3.38;100.00
70506;BME280;58032;49.820;6.274;2023-04-27T00:05:42;97779.78;;;3.39;100.00
70506;BME280;58032;49.820;6.274;2023-04-27T00:08:09;97773.41;;;3.35;100.00
70506;BME280;58032;49.820;6.274;2023-04-27T00:10:36;97776.63;;;3.33;100.00
70506;BME280;58032;49.820;6.274;2023-04-27T00:13:03;97775.03;;;3.32;100.00
70506;BME280;58032;49.820;6.274;2023-04-27T00:15:30;97774.66;;;3.27;100.00
70506;BME280;58032;49.820;6.274;2023-04-27T00:17:57;97769.50;;;3.25;100.00
70506;BME280;58032;49.820;6.274;2023-04-27T00:20:24;97767.50;;;3.26;100.00
70506;BME280;58032;49.820;6.274;2023-04-27T00:22:51;97771.13;;;3.23;100.00
70506;BME280;58032;49.820;6.274;2023-04-27T00:25:17;97776.69;;;3.19;100.00
70506;BME280;58032;49.820;6.274;2023-04-27T00:27:44;97772.31;;;3.18;100.00
70506;BME280;58032;49.820;6.274;2023-04-27T00:30:11;97770.78;;;3.10;100.00
70506;BME280;58032;49.820;6.274;2023-04-27T00:32:38;97771.97;;;3.09;100.00
70506;BME280;58032;49.820;6.274;2023-04-27T00:35:05;97775.16;;;3.11;100.00
70506;BME280;58032;49.820;6.274;2023-04-27T00:37:32;97776.72;;;3.15;100.00
70506;BME280;58032;49.820;6.274;2023-04-27T00:40:03;97774.31;;;3.21;100.00
70506;BME280;58032;49.820;6.274;2023-04-27T00:42:32;97770.69;;;3.24;100.00
70506;BME280;58032;49.820;6.274;2023-04-27T00:44:59;97763.91;;;3.32;100.00
70506;BME280;58032;49.820;6.274;2023-04-27T00:47:28;97762.75;;;3.26;100.00
70506;BME280;58032;49.820;6.274;2023-04-27T00:49:55;97760.69;;;3.34;100.00
70506;BME280;58032;49.820;6.274;2023-04-27T00:52:24;97758.78;;;3.24;100.00
70506;BME280;58032;49.820;6.274;2023-04-27T00:54:52;97755.19;;;3.27;100.00
70506;BME280;58032;49.820;6.274;2023-04-27T00:57:19;97763.13;;;3.28;100.00
70506;BME280;58032;49.820;6.274;2023-04-27T00:59:49;97761.50;;;3.35;100.00
70506;BME280;58032;49.820;6.274;2023-04-27T01:02:16;97756.34;;;3.33;100.00
70506;BME280;58032;49.820;6.274;2023-04-27T01:04:44;97765.50;;;3.33;100.00
70506;BME280;58032;49.820;6.274;2023-04-27T01:07:11;97757.13;;;3.37;100.00
70506;BME280;58032;49.820;6.274;2023-04-27T01:09:38;97760.28;;;3.43;100.00
70506;BME280;58032;49.820;6.274;2023-04-27T01:12:05;97760.28;;;3.39;100.00
70506;BME280;58032;49.820;6.274;2023-04-27T01:14:32;97766.25;;;3.38;100.00
70506;BME280;58032;49.820;6.274;2023-04-27T01:16:59;97766.25;;;3.38;100.00
70506;BME280;58032;49.820;6.274;2023-04-27T01:19:26;97762.66;;;3.41;100.00
70506;BME280;58032;49.820;6.274;2023-04-27T01:21:53;97765.03;;;3.42;100.00
70506;BME280;58032;49.820;6.274;2023-04-27T01:24:20;97765.41;;;3.48;100.00
70506;BME280;58032;49.820;6.274;2023-04-27T01:26:47;97766.66;;;3.36;100.00
70506;BME280;58032;49.820;6.274;2023-04-27T01:29:15;97768.66;;;3.39;100.00
70506;BME280;58032;49.820;6.274;2023-04-27T01:31:42;97766.28;;;3.30;100.00
70506;BME280;58032;49.820;6.274;2023-04-27T01:34:09;97769.47;;;3.32;100.00
70506;BME280;58032;49.820;6.274;2023-04-27T01:36:36;97770.22;;;3.40;100.00
70506;BME280;58032;49.820;6.274;2023-04-27T01:39:03;97767.84;;;3.39;100.00
70506;BME280;58032;49.820;6.274;2023-04-27T01:41:35;97762.72;;;3.30;100.00
70506;BME280;58032;49.820;6.274;2023-04-27T01:44:02;97766.69;;;3.29;100.00
70506;BME280;58032;49.820;6.274;2023-04-27T01:46:29;97763.13;;;3.28;100.00
70506;BME280;58032;49.820;6.274;2023-04-27T01:48:56;97757.88;;;3.41;100.00
70506;BME280;58032;49.820;6.274;2023-04-27T01:51:23;97760.34;;;3.28;100.00
70506;BME280;58032;49.820;6.274;2023-04-27T01:53:49;97767.06;;;3.38;100.00
70506;BME280;58032;49.820;6.274;2023-04-27T01:56:16;97769.41;;;3.40;100.00
70506;BME280;58032;49.820;6.274;2023-04-27T01:58:43;97771.84;;;3.30;100.00
70506;BME280;58032;49.820;6.274;2023-04-27T02:01:10;97765.53;;;3.26;100.00
70506;BME280;58032;49.820;6.274;2023-04-27T02:03:37;97766.69;;;3.32;100.00
70506;BME280;58032;49.820;6.274;2023-04-27T02:06:04;97764.72;;;3.26;100.00
70506;BME280;58032;49.820;6.274;2023-04-27T02:08:32;97761.16;;;3.25;100.00
70506;BME280;58032;49.820;6.274;2023-04-27T02:10:59;97761.94;;;3.29;100.00
70506;BME280;58032;49.820;6.274;2023-04-27T02:13:26;97740.16;;;3.10;100.00
70506;BME280;58032;49.820;6.274;2023-04-27T02:15:53;97754.84;;;3.17;100.00
70506;BME280;58032;49.820;6.274;2023-04-27T02:18:21;97750.50;;;3.13;100.00
70506;BME280;58032;49.820;6.274;2023-04-27T02:20:49;97760.44;;;3.14;100.00
70506;BME280;58032;49.820;6.274;2023-04-27T02:23:16;97759.19;;;3.19;100.00
70506;BME280;58032;49.820;6.274;2023-04-27T02:25:43;97759.97;;;3.26;100.00
70506;BME280;58032;49.820;6.274;2023-04-27T02:28:12;97757.25;;;3.15;100.00
70506;BME280;58032;49.820;6.274;2023-04-27T02:30:39;97763.22;;;3.14;100.00
70506;BME280;58032;49.820;6.274;2023-04-27T02:33:06;97757.28;;;3.08;100.00
70506;BME280;58032;49.820;6.274;2023-04-27T02:35:33;97762.81;;;3.12;100.00
70506;BME280;58032;49.820;6.274;2023-04-27T02:38:00;97766.41;;;3.05;100.00
70506;BME280;58032;49.820;6.274;2023-04-27T02:40:27;97768.81;;;3.10;100.00
70506;BME280;58032;49.820;6.274;2023-04-27T02:42:54;97766.41;;;3.09;100.00
70506;BME280;58032;49.820;6.274;2023-04-27T02:45:21;97754.88;;;3.07;100.00
70506;BME280;58032;49.820;6.274;2023-04-27T02:47:48;97762.06;;;3.00;100.00
70506;BME280;58032;49.820;6.274;2023-04-27T02:50:16;97766.09;;;2.85;100.00
70506;BME280;58032;49.820;6.274;2023-04-27T02:52:43;97760.91;;;2.91;100.00
70506;BME280;58032;49.820;6.274;2023-04-27T02:55:10;97764.13;;;2.85;100.00
70506;BME280;58032;49.820;6.274;2023-04-27T02:57:37;97761.38;;;2.75;100.00
70506;BME280;58032;49.820;6.274;2023-04-27T03:00:04;97759.41;;;2.68;100.00
70506;BME280;58032;49.820;6.274;2023-04-27T03:02:32;97757.06;;;2.63;100.00
70506;BME280;58032;49.820;6.274;2023-04-27T03:04:59;97750.72;;;2.55;100.00
70506;BME280;58032;49.820;6.274;2023-04-27T03:07:27;97754.69;;;2.54;100.00
70506;BME280;58032;49.820;6.274;2023-04-27T03:09:54;97756.31;;;2.44;100.00
70506;BME280;58032;49.820;6.274;2023-04-27T03:12:21;97749.56;;;2.38;100.00
70506;BME280;58032;49.820;6.274;2023-04-27T03:14:48;97753.16;;;2.28;100.00
70506;BME280;58032;49.820;6.274;2023-04-27T03:17:16;97744.44;;;2.15;100.00
70506;BME280;58032;49.820;6.274;2023-04-27T03:19:46;97745.66;;;2.10;100.00
70506;BME280;58032;49.820;6.274;2023-04-27T03:22:14;97752.41;;;2.13;100.00
70506;BME280;58032;49.820;6.274;2023-04-27T03:24:41;97756.78;;;2.14;100.00
70506;BME280;58032;49.820;6.274;2023-04-27T03:27:08;97754.78;;;2.11;100.00
70506;BME280;58032;49.820;6.274;2023-04-27T03:29:35;97754.00;;;2.03;100.00
70506;BME280;58032;49.820;6.274;2023-04-27T03:32:03;97749.22;;;1.96;100.00
70506;BME280;58032;49.820;6.274;2023-04-27T03:34:30;97745.28;;;1.90;100.00
70506;BME280;58032;49.820;6.274;2023-04-27T03:37:01;97754.78;;;1.89;100.00
70506;BME280;58032;49.820;6.274;2023-04-27T03:39:33;97763.13;;;1.82;100.00
70506;BME280;58032;49.820;6.274;2023-04-27T03:41:59;97751.22;;;1.78;100.00
70506;BME280;58032;49.820;6.274;2023-04-27T03:44:28;97754.00;;;1.70;100.00
70506;BME280;58032;49.820;6.274;2023-04-27T03:46:56;97753.97;;;1.63;100.00
70506;BME280;58032;49.820;6.274;2023-04-27T03:49:24;97757.56;;;1.56;100.00
70506;BME280;58032;49.820;6.274;2023-04-27T03:51:51;97753.97;;;1.49;100.00
70506;BME280;58032;49.820;6.274;2023-04-27T03:54:18;97753.97;;;1.41;100.00
70506;BME280;58032;49.820;6.274;2023-04-27T03:56:45;97757.91;;;1.37;100.00
70506;BME280;58032;49.820;6.274;2023-04-27T03:59:12;97761.88;;;1.39;100.00
70506;BME280;58032;49.820;6.274;2023-04-27T04:01:45;97759.09;;;1.39;100.00
70506;BME280;58032;49.820;6.274;2023-04-27T04:04:12;97765.06;;;1.41;100.00
70506;BME280;58032;49.820;6.274;2023-04-27T04:06:41;97759.50;;;1.41;100.00
70506;BME280;58032;49.820;6.274;2023-04-27T04:09:07;97759.91;;;1.36;100.00
70506;BME280;58032;49.820;6.274;2023-04-27T04:11:34;97753.94;;;1.27;100.00
70506;BME280;58032;49.820;6.274;2023-04-27T04:14:04;97763.03;;;1.24;100.00
70506;BME280;58032;49.820;6.274;2023-04-27T04:16:32;97764.59;;;1.18;100.00
70506;BME280;58032;49.820;6.274;2023-04-27T04:18:59;97766.97;;;1.16;100.00
70506;BME280;58032;49.820;6.274;2023-04-27T04:21:26;97772.53;;;1.19;100.00
70506;BME280;58032;49.820;6.274;2023-04-27T04:23:53;97770.16;;;1.18;100.00
70506;BME280;58032;49.820;6.274;2023-04-27T04:26:20;97772.50;;;1.12;100.00
70506;BME280;58032;49.820;6.274;2023-04-27T04:28:49;97777.63;;;0.99;100.00
70506;BME280;58032;49.820;6.274;2023-04-27T04:31:15;97779.19;;;0.93;100.00
70506;BME280;58032;49.820;6.274;2023-04-27T04:33:44;97781.56;;;0.91;100.00
70506;BME280;58032;49.820;6.274;2023-04-27T04:36:14;97777.63;;;0.92;100.00
70506;BME280;58032;49.820;6.274;2023-04-27T04:38:40;97783.59;;;1.08;100.00
70506;BME280;58032;49.820;6.274;2023-04-27T04:41:08;97777.34;;;1.48;100.00
70506;BME280;58032;49.820;6.274;2023-04-27T04:43:36;97784.53;;;2.25;100.00
70506;BME280;58032;49.820;6.274;2023-04-27T04:46:05;97782.25;;;3.23;100.00
70506;BME280;58032;49.820;6.274;2023-04-27T04:48:33;97783.63;;;3.60;100.00
70506;BME280;58032;49.820;6.274;2023-04-27T04:51:00;97773.56;;;3.10;100.00
70506;BME280;58032;49.820;6.274;2023-04-27T04:53:28;97781.63;;;2.79;100.00
70506;BME280;58032;49.820;6.274;2023-04-27T04:55:54;97779.63;;;2.83;100.00
70506;BME280;58032;49.820;6.274;2023-04-27T04:58:22;97791.25;;;3.52;100.00
70506;BME280;58032;49.820;6.274;2023-04-27T05:00:49;97780.59;;;3.92;100.00
70506;BME280;58032;49.820;6.274;2023-04-27T05:03:16;97791.09;;;3.74;100.00
70506;BME280;58032;49.820;6.274;2023-04-27T05:05:43;97781.03;;;3.87;100.00
70506;BME280;58032;49.820;6.274;2023-04-27T05:08:09;97792.41;;;3.55;100.00
70506;BME280;58032;49.820;6.274;2023-04-27T05:10:37;97789.19;;;3.60;100.00
70506;BME280;58032;49.820;6.274;2023-04-27T05:13:05;97792.28;;;3.73;100.00
70506;BME280;58032;49.820;6.274;2023-04-27T05:15:32;97790.75;;;4.17;100.00
70506;BME280;58032;49.820;6.274;2023-04-27T05:17:59;97791.44;;;3.79;100.00
70506;BME280;58032;49.820;6.274;2023-04-27T05:20:26;97794.47;;;4.00;100.00
70506;BME280;58032;49.820;6.274;2023-04-27T05:22:53;97792.25;;;5.05;100.00
70506;BME280;58032;49.820;6.274;2023-04-27T05:25:20;97795.34;;;6.92;100.00
70506;BME280;58032;49.820;6.274;2023-04-27T05:27:46;97792.50;;;9.01;100.00
70506;BME280;58032;49.820;6.274;2023-04-27T05:30:13;97785.56;;;10.12;100.00
70506;BME280;58032;49.820;6.274;2023-04-27T05:32:40;97785.97;;;9.46;100.00
70506;BME280;58032;49.820;6.274;2023-04-27T05:35:07;97790.59;;;9.40;100.00
70506;BME280;58032;49.820;6.274;2023-04-27T05:37:34;97789.97;;;9.88;100.00
70506;BME280;58032;49.820;6.274;2023-04-27T05:40:01;97789.88;;;11.00;100.00
70506;BME280;58032;49.820;6.274;2023-04-27T05:42:28;97798.53;;;10.84;95.60
70506;BME280;58032;49.820;6.274;2023-04-27T05:44:55;97797.34;;;10.94;91.90
70506;BME280;58032;49.820;6.274;2023-04-27T05:47:22;97796.53;;;8.37;100.00
70506;BME280;58032;49.820;6.274;2023-04-27T05:49:50;97803.91;;;8.81;100.00
70506;BME280;58032;49.820;6.274;2023-04-27T05:52:19;97802.00;;;8.61;100.00
70506;BME280;58032;49.820;6.274;2023-04-27T05:54:49;97796.56;;;6.91;100.00
70506;BME280;58032;49.820;6.274;2023-04-27T05:57:16;97798.75;;;6.12;100.00
70506;BME280;58032;49.820;6.274;2023-04-27T05:59:43;97803.69;;;6.04;100.00
70506;BME280;58032;49.820;6.274;2023-04-27T06:02:10;97808.84;;;5.16;100.00
70506;BME280;58032;49.820;6.274;2023-04-27T06:04:36;97797.47;;;5.00;100.00
70506;BME280;58032;49.820;6.274;2023-04-27T06:07:08;97806.06;;;5.16;100.00
70506;BME280;58032;49.820;6.274;2023-04-27T06:09:36;97814.34;;;4.89;100.00
70506;BME280;58032;49.820;6.274;2023-04-27T06:12:07;97820.59;;;4.66;100.00
70506;BME280;58032;49.820;6.274;2023-04-27T06:14:36;97822.00;;;4.43;100.00
70506;BME280;58032;49.820;6.274;2023-04-27T06:17:03;97821.09;;;4.53;100.00
70506;BME280;58032;49.820;6.274;2023-04-27T06:19:30;97818.25;;;4.57;100.00
70506;BME280;58032;49.820;6.274;2023-04-27T06:21:57;97826.97;;;5.01;100.00
70506;BME280;58032;49.820;6.274;2023-04-27T06:24:24;97816.88;;;5.11;100.00
70506;BME280;58032;49.820;6.274;2023-04-27T06:26:51;97818.03;;;4.82;100.00
70506;BME280;58032;49.820;6.274;2023-04-27T06:29:17;97819.41;;;5.36;100.00
70506;BME280;58032;49.820;6.274;2023-04-27T06:31:44;97820.59;;;5.35;100.00
70506;BME280;58032;49.820;6.274;2023-04-27T06:34:11;97812.63;;;5.64;100.00
70506;BME280;58032;49.820;6.274;2023-04-27T06:36:38;97821.00;;;5.64;100.00
70506;BME280;58032;49.820;6.274;2023-04-27T06:39:05;97811.31;;;5.73;100.00
70506;BME280;58032;49.820;6.274;2023-04-27T06:41:32;97808.72;;;5.58;100.00
70506;BME280;58032;49.820;6.274;2023-04-27T06:43:59;97817.84;;;5.62;100.00
70506;BME280;58032;49.820;6.274;2023-04-27T06:46:26;97823.84;;;5.61;100.00
70506;BME280;58032;49.820;6.274;2023-04-27T06:48:53;97818.44;;;5.46;100.00
70506;BME280;58032;49.820;6.274;2023-04-27T06:51:20;97817.22;;;5.78;100.00
70506;BME280;58032;49.820;6.274;2023-04-27T06:53:47;97818.81;;;5.79;100.00
70506;BME280;58032;49.820;6.274;2023-04-27T06:56:14;97816.34;;;6.36;100.00
70506;BME280;58032;49.820;6.274;2023-04-27T06:58:41;97826.88;;;6.01;100.00
70506;BME280;58032;49.820;6.274;2023-04-27T07:01:07;97811.34;;;6.24;100.00
70506;BME280;58032;49.820;6.274;2023-04-27T07:03:34;97818.97;;;6.47;100.00
70506;BME280;58032;49.820;6.274;2023-04-27T07:06:02;97809.94;;;6.83;100.00
70506;BME280;58032;49.820;6.274;2023-04-27T07:08:29;97795.50;;;7.25;100.00
70506;BME280;58032;49.820;6.274;2023-04-27T07:10:56;97794.53;;;7.52;100.00
70506;BME280;58032;49.820;6.274;2023-04-27T07:13:22;97805.16;;;7.60;100.00
70506;BME280;58032;49.820;6.274;2023-04-27T07:15:54;97806.19;;;7.87;100.00
70506;BME280;58032;49.820;6.274;2023-04-27T07:18:23;97806.72;;;8.31;100.00
70506;BME280;58032;49.820;6.274;2023-04-27T07:20:50;97809.69;;;8.07;100.00
70506;BME280;58032;49.820;6.274;2023-04-27T07:23:17;97812.00;;;7.59;100.00
70506;BME280;58032;49.820;6.274;2023-04-27T07:25:44;97816.50;;;7.73;100.00
70506;BME280;58032;49.820;6.274;2023-04-27T07:28:11;97817.66;;;7.56;100.00
70506;BME280;58032;49.820;6.274;2023-04-27T07:30:38;97812.72;;;7.80;100.00
70506;BME280;58032;49.820;6.274;2023-04-27T07:33:06;97823.22;;;7.39;100.00
70506;BME280;58032;49.820;6.274;2023-04-27T07:35:33;97823.72;;;8.24;100.00
70506;BME280;58032;49.820;6.274;2023-04-27T07:38:00;97813.50;;;8.96;100.00
70506;BME280;58032;49.820;6.274;2023-04-27T07:40:30;97822.94;;;8.40;100.00
70506;BME280;58032;49.820;6.274;2023-04-27T07:42:58;97815.84;;;8.68;100.00
70506;BME280;58032;49.820;6.274;2023-04-27T07:45:25;97810.38;;;8.45;100.00
70506;BME280;58032;49.820;6.274;2023-04-27T07:47:59;97808.91;;;8.57;100.00
70506;BME280;58032;49.820;6.274;2023-04-27T07:50:27;97800.53;;;9.96;100.00
70506;BME280;58032;49.820;6.274;2023-04-27T07:52:55;97794.91;;;10.22;100.00
70506;BME280;58032;49.820;6.274;2023-04-27T07:55:23;97792.53;;;10.34;100.00
70506;BME280;58032;49.820;6.274;2023-04-27T07:57:53;97793.22;;;10.25;100.00
70506;BME280;58032;49.820;6.274;2023-04-27T08:00:21;97791.47;;;10.66;100.00
70506;BME280;58032;49.820;6.274;2023-04-27T08:02:49;97786.88;;;10.47;100.00
70506;BME280;58032;49.820;6.274;2023-04-27T08:05:16;97787.81;;;10.05;100.00
70506;BME280;58032;49.820;6.274;2023-04-27T08:07:43;97803.38;;;8.69;100.00
70506;BME280;58032;49.820;6.274;2023-04-27T08:10:10;97795.13;;;8.79;100.00
70506;BME280;58032;49.820;6.274;2023-04-27T08:12:37;97796.16;;;9.14;100.00
70506;BME280;58032;49.820;6.274;2023-04-27T08:15:05;97789.94;;;10.39;100.00
70506;BME280;58032;49.820;6.274;2023-04-27T08:17:32;97793.13;;;9.77;100.00
70506;BME280;58032;49.820;6.274;2023-04-27T08:19:59;97786.56;;;10.57;100.00
70506;BME280;58032;49.820;6.274;2023-04-27T08:22:26;97789.75;;;10.21;100.00
70506;BME280;58032;49.820;6.274;2023-04-27T08:24:53;97782.16;;;11.14;100.00
70506;BME280;58032;49.820;6.274;2023-04-27T08:27:20;97776.84;;;11.69;100.00
70506;BME280;58032;49.820;6.274;2023-04-27T08:29:47;97778.88;;;11.37;100.00
70506;BME280;58032;49.820;6.274;2023-04-27T08:32:15;97787.69;;;10.47;100.00
70506;BME280;58032;49.820;6.274;2023-04-27T08:34:42;97780.81;;;10.35;100.00
70506;BME280;58032;49.820;6.274;2023-04-27T08:37:10;97780.13;;;11.14;100.00
70506;BME280;58032;49.820;6.274;2023-04-27T08:39:37;97772.31;;;13.00;96.59
70506;BME280;58032;49.820;6.274;2023-04-27T08:42:11;97771.44;;;14.17;91.43
70506;BME280;58032;49.820;6.274;2023-04-27T08:44:41;97767.31;;;14.76;85.04
70506;BME280;58032;49.820;6.274;2023-04-27T08:47:09;97766.63;;;14.56;84.02
70506;BME280;58032;49.820;6.274;2023-04-27T08:49:36;97768.31;;;14.05;75.71
70506;BME280;58032;49.820;6.274;2023-04-27T08:52:14;97770.75;;;13.88;85.76
70506;BME280;58032;49.820;6.274;2023-04-27T08:54:41;97768.28;;;13.72;85.52
70506;BME280;58032;49.820;6.274;2023-04-27T08:57:12;97773.88;;;12.64;85.42
70506;BME280;58032;49.820;6.274;2023-04-27T08:59:40;97775.63;;;12.80;94.31
70506;BME280;58032;49.820;6.274;2023-04-27T09:02:18;97782.53;;;10.20;100.00
70506;BME280;58032;49.820;6.274;2023-04-27T09:04:45;97776.13;;;10.80;100.00
70506;BME280;58032;49.820;6.274;2023-04-27T09:07:14;97770.78;;;11.49;100.00
70506;BME280;58032;49.820;6.274;2023-04-27T09:09:42;97778.41;;;11.39;100.00
70506;BME280;58032;49.820;6.274;2023-04-27T09:12:20;97768.78;;;11.49;100.00
70506;BME280;58032;49.820;6.274;2023-04-27T09:14:57;97767.81;;;12.15;100.00
70506;BME280;58032;49.820;6.274;2023-04-27T09:17:26;97765.75;;;12.07;100.00
70506;BME280;58032;49.820;6.274;2023-04-27T09:20:07;97775.78;;;11.76;100.00
70506;BME280;58032;49.820;6.274;2023-04-27T09:22:44;97777.03;;;11.44;100.00
70506;BME280;58032;49.820;6.274;2023-04-27T09:25:32;97768.56;;;11.75;100.00
70506;BME280;58032;49.820;6.274;2023-04-27T09:28:00;97772.00;;;11.70;100.00
70506;BME280;58032;49.820;6.274;2023-04-27T09:30:28;97774.88;;;11.79;100.00
70506;BME280;58032;49.820;6.274;2023-04-27T09:33:01;97772.84;;;11.57;100.00
70506;BME280;58032;49.820;6.274;2023-04-27T09:35:31;97775.47;;;12.06;100.00
70506;BME280;58032;49.820;6.274;2023-04-27T09:37:59;97780.59;;;11.98;100.00
70506;BME280;58032;49.820;6.274;2023-04-27T09:40:27;97773.31;;;12.19;100.00
70506;BME280;58032;49.820;6.274;2023-04-27T09:42:59;97773.19;;;12.32;100.00
70506;BME280;58032;49.820;6.274;2023-04-27T09:45:27;97773.03;;;12.35;100.00
70506;BME280;58032;49.820;6.274;2023-04-27T09:47:54;97779.69;;;12.60;100.00
70506;BME280;58032;49.820;6.274;2023-04-27T09:50:21;97775.25;;;12.41;100.00
70506;BME280;58032;49.820;6.274;2023-04-27T09:52:48;97777.34;;;12.96;96.54
70506;BME280;58032;49.820;6.274;2023-04-27T09:55:19;97769.06;;;13.72;91.47
70506;BME280;58032;49.820;6.274;2023-04-27T09:57:53;97769.81;;;13.39;90.15
70506;BME280;58032;49.820;6.274;2023-04-27T10:03:29;97759.84;;;14.30;79.74
70506;BME280;58032;49.820;6.274;2023-04-27T10:09:03;97762.56;;;13.20;100.00
70506;BME280;58032;49.820;6.274;2023-04-27T10:11:39;97764.16;;;12.93;99.75
70506;BME280;58032;49.820;6.274;2023-04-27T10:14:08;97763.53;;;12.98;98.96
70506;BME280;58032;49.820;6.274;2023-04-27T10:16:54;97754.41;;;13.22;93.10
70506;BME280;58032;49.820;6.274;2023-04-27T10:19:24;97763.66;;;12.48;88.43
70506;BME280;58032;49.820;6.274;2023-04-27T10:24:17;97745.31;;;13.18;90.15
70506;BME280;58032;49.820;6.274;2023-04-27T10:26:46;97733.31;;;14.18;86.22
70506;BME280;58032;49.820;6.274;2023-04-27T10:29:13;97737.03;;;14.57;79.23
70506;BME280;58032;49.820;6.274;2023-04-27T10:31:43;97737.69;;;14.77;80.71
70506;BME280;58032;49.820;6.274;2023-04-27T10:34:15;97731.00;;;15.04;79.30
70506;BME280;58032;49.820;6.274;2023-04-27T10:36:44;97735.53;;;13.47;90.95
70506;BME280;58032;49.820;6.274;2023-04-27T10:39:20;97717.50;;;14.35;94.61
70506;BME280;58032;49.820;6.274;2023-04-27T10:41:58;97723.81;;;14.30;95.15
70506;BME280;58032;49.820;6.274;2023-04-27T10:44:29;97713.78;;;13.96;95.80
70506;BME280;58032;49.820;6.274;2023-04-27T10:46:59;97716.69;;;14.83;91.29
70506;BME280;58032;49.820;6.274;2023-04-27T10:49:29;97716.94;;;14.22;89.50
70506;BME280;58032;49.820;6.274;2023-04-27T10:51:57;97722.09;;;13.99;92.71
70506;BME280;58032;49.820;6.274;2023-04-27T10:54:28;97724.50;;;13.49;87.83
70506;BME280;58032;49.820;6.274;2023-04-27T10:57:10;97716.75;;;14.50;85.43
70506;BME280;58032;49.820;6.274;2023-04-27T10:59:52;97717.38;;;13.63;92.51
70506;BME280;58032;49.820;6.274;2023-04-27T11:02:26;97721.94;;;12.89;92.88
70506;BME280;58032;49.820;6.274;2023-04-27T11:04:54;97708.44;;;14.46;88.69
70506;BME280;58032;49.820;6.274;2023-04-27T11:07:26;97701.66;;;15.07;81.32
70506;BME280;58032;49.820;6.274;2023-04-27T11:09:55;97705.97;;;15.02;83.83
70506;BME280;58032;49.820;6.274;2023-04-27T11:12:22;97706.34;;;14.32;91.73
70506;BME280;58032;49.820;6.274;2023-04-27T11:14:49;97709.72;;;14.69;92.71
70506;BME280;58032;49.820;6.274;2023-04-27T11:17:27;97711.09;;;14.50;92.42
70506;BME280;58032;49.820;6.274;2023-04-27T11:19:54;97704.41;;;15.16;84.56
70506;BME280;58032;49.820;6.274;2023-04-27T11:22:21;97696.38;;;15.30;79.03
70506;BME280;58032;49.820;6.274;2023-04-27T11:24:49;97694.34;;;15.00;86.57
70506;BME280;58032;49.820;6.274;2023-04-27T11:27:17;97699.53;;;15.32;82.30
70506;BME280;58032;49.820;6.274;2023-04-27T11:29:44;97702.50;;;14.83;72.69
70506;BME280;58032;49.820;6.274;2023-04-27T11:32:19;97694.06;;;15.43;77.06
70506;BME280;58032;49.820;6.274;2023-04-27T11:34:50;97695.13;;;15.46;63.25
70506;BME280;58032;49.820;6.274;2023-04-27T11:37:26;97687.28;;;15.71;64.26
70506;BME280;58032;49.820;6.274;2023-04-27T11:39:53;97684.56;;;15.31;63.79
70506;BME280;58032;49.820;6.274;2023-04-27T11:42:26;97679.16;;;15.03;70.65
70506;BME280;58032;49.820;6.274;2023-04-27T11:45:02;97676.63;;;15.35;65.79
70506;BME280;58032;49.820;6.274;2023-04-27T11:47:32;97674.28;;;15.49;70.38
70506;BME280;58032;49.820;6.274;2023-04-27T11:50:03;97666.75;;;15.46;81.49
70506;BME280;58032;49.820;6.274;2023-04-27T11:52:33;97662.75;;;15.23;84.92
70506;BME280;58032;49.820;6.274;2023-04-27T11:55:01;97669.69;;;15.51;90.15
70506;BME280;58032;49.820;6.274;2023-04-27T11:57:32;97666.94;;;14.43;82.69
70506;BME280;58032;49.820;6.274;2023-04-27T12:00:00;97664.72;;;15.16;78.66
70506;BME280;58032;49.820;6.274;2023-04-27T12:02:39;97669.94;;;15.83;74.71
70506;BME280;58032;49.820;6.274;2023-04-27T12:05:07;97661.75;;;15.11;78.79
70506;BME280;58032;49.820;6.274;2023-04-27T12:07:35;97671.66;;;15.00;84.67
70506;BME280;58032;49.820;6.274;2023-04-27T12:10:02;97669.00;;;14.82;82.43
70506;BME280;58032;49.820;6.274;2023-04-27T12:12:30;97668.19;;;14.42;93.21
70506;BME280;58032;49.820;6.274;2023-04-27T12:14:57;97656.06;;;15.71;89.19
70506;BME280;58032;49.820;6.274;2023-04-27T12:17:24;97660.31;;;15.96;78.15
70506;BME280;58032;49.820;6.274;2023-04-27T12:19:51;97658.25;;;16.58;63.95
70506;BME280;58032;49.820;6.274;2023-04-27T12:22:18;97658.59;;;15.54;73.89
70506;BME280;58032;49.820;6.274;2023-04-27T12:24:45;97660.53;;;16.13;76.51
70506;BME280;58032;49.820;6.274;2023-04-27T12:27:12;97655.00;;;16.45;85.04
70506;BME280;58032;49.820;6.274;2023-04-27T12:29:39;97655.00;;;16.45;79.83
70506;BME280;58032;49.820;6.274;2023-04-27T12:32:06;97653.28;;;15.76;84.50
70506;BME280;58032;49.820;6.274;2023-04-27T12:34:33;97667.56;;;16.59;92.74
70506;BME280;58032;49.820;6.274;2023-04-27T12:37:00;97652.91;;;17.13;80.56
70506;BME280;58032;49.820;6.274;2023-04-27T12:39:27;97649.44;;;15.44;91.73
70506;BME280;58032;49.820;6.274;2023-04-27T12:41:54;97655.44;;;16.38;80.52
70506;BME280;58032;49.820;6.274;2023-04-27T12:44:21;97653.34;;;16.59;78.90
70506;BME280;58032;49.820;6.274;2023-04-27T12:46:48;97655.44;;;17.69;76.76
70506;BME280;58032;49.820;6.274;2023-04-27T12:49:15;97660.09;;;18.65;65.83
70506;BME280;58032;49.820;6.274;2023-04-27T12:51:43;97651.19;;;19.35;63.89
70506;BME280;58032;49.820;6.274;2023-04-27T12:54:11;97662.13;;;17.98;65.67
70506;BME280;58032;49.820;6.274;2023-04-27T12:56:38;97656.66;;;19.61;59.46
70506;BME280;58032;49.820;6.274;2023-04-27T12:59:05;97666.63;;;18.77;61.64
70506;BME280;58032;49.820;6.274;2023-04-27T13:01:32;97673.00;;;16.83;75.51
70506;BME280;58032;49.820;6.274;2023-04-27T13:04:01;97673.66;;;15.75;82.65
70506;BME280;58032;49.820;6.274;2023-04-27T13:06:29;97671.28;;;15.88;78.80
70506;BME280;58032;49.820;6.274;2023-04-27T13:08:57;97667.97;;;16.93;82.02
70506;BME280;58032;49.820;6.274;2023-04-27T13:11:25;97665.03;;;17.08;77.57
70506;BME280;58032;49.820;6.274;2023-04-27T13:13:52;97664.91;;;15.78;90.39